sensor_id;sensor_type;location;lat;lon;timestamp;P1;durP1;ratioP1;P2;durP2;ratioP2
37885;SDS011;23726;52.520;13.434;2022-07-23T00:01:18;7.15;;;6.47;;
37885;SDS011;23726;52.520;13.434;2022-07-23T00:03:45;8.80;;;7.00;;
37885;SDS011;23726;52.520;13.434;2022-07-23T00:06:12;9.65;;;7.20;;
37885;SDS011;23726;52.520;13.434;2022-07-23T00:08:38;8.93;;;7.18;;
37885;SDS011;23726;52.520;13.434;2022-07-23T00:11:03;7.15;;;6.45;;
37885;SDS011;23726;52.520;13.434;2022-07-23T00:13:29;7.28;;;6.30;;
37885;SDS011;23726;52.520;13.434;2022-07-23T00:15:55;8.02;;;7.20;;
37885;SDS011;23726;52.520;13.434;2022-07-23T00:18:20;7.97;;;6.32;;
37885;SDS011;23726;52.520;13.434;2022-07-23T00:20:46;7.00;;;6.30;;
37885;SDS011;23726;52.520;13.434;2022-07-23T00:23:12;7.20;;;6.43;;
37885;SDS011;23726;52.520;13.434;2022-07-23T00:25:37;6.72;;;6.05;;
37885;SDS011;23726;52.520;13.434;2022-07-23T00:28:03;7.53;;;6.82;;
37885;SDS011;23726;52.520;13.434;2022-07-23T00:30:30;8.15;;;7.18;;
37885;SDS011;23726;52.520;13.434;2022-07-23T00:32:57;6.90;;;6.15;;
37885;SDS011;23726;52.520;13.434;2022-07-23T00:35:26;6.28;;;5.68;;
37885;SDS011;23726;52.520;13.434;2022-07-23T00:37:53;7.35;;;6.65;;
37885;SDS011;23726;52.520;13.434;2022-07-23T00:40:20;7.80;;;6.88;;
37885;SDS011;23726;52.520;13.434;2022-07-23T00:42:45;7.65;;;6.55;;
37885;SDS011;23726;52.520;13.434;2022-07-23T00:45:11;7.50;;;6.35;;
37885;SDS011;23726;52.520;13.434;2022-07-23T00:47:39;7.25;;;6.38;;
37885;SDS011;23726;52.520;13.434;2022-07-23T00:50:05;8.48;;;6.32;;
37885;SDS011;23726;52.520;13.434;2022-07-23T00:52:32;7.43;;;5.85;;
37885;SDS011;23726;52.520;13.434;2022-07-23T00:54:59;8.00;;;6.47;;
37885;SDS011;23726;52.520;13.434;2022-07-23T00:57:26;6.63;;;6.03;;
37885;SDS011;23726;52.520;13.434;2022-07-23T00:59:52;7.45;;;6.65;;
37885;SDS011;23726;52.520;13.434;2022-07-23T01:02:18;7.10;;;6.13;;
37885;SDS011;23726;52.520;13.434;2022-07-23T01:04:43;6.90;;;6.18;;
37885;SDS011;23726;52.520;13.434;2022-07-23T01:07:09;7.35;;;6.63;;
37885;SDS011;23726;52.520;13.434;2022-07-23T01:09:35;7.43;;;6.72;;
37885;SDS011;23726;52.520;13.434;2022-07-23T01:12:02;7.20;;;5.85;;
37885;SDS011;23726;52.520;13.434;2022-07-23T01:14:28;7.38;;;6.63;;
37885;SDS011;23726;52.520;13.434;2022-07-23T01:16:54;7.28;;;6.57;;
37885;SDS011;23726;52.520;13.434;2022-07-23T01:19:19;6.70;;;6.10;;
37885;SDS011;23726;52.520;13.434;2022-07-23T01:21:51;7.13;;;6.43;;
37885;SDS011;23726;52.520;13.434;2022-07-23T01:24:18;7.65;;;6.85;;
37885;SDS011;23726;52.520;13.434;2022-07-23T01:26:45;7.15;;;6.45;;
37885;SDS011;23726;52.520;13.434;2022-07-23T01:29:11;8.73;;;6.57;;
37885;SDS011;23726;52.520;13.434;2022-07-23T01:31:37;7.28;;;6.57;;
37885;SDS011;23726;52.520;13.434;2022-07-23T01:34:03;7.72;;;6.90;;
37885;SDS011;23726;52.520;13.434;2022-07-23T01:36:29;7.30;;;6.13;;
37885;SDS011;23726;52.520;13.434;2022-07-23T01:38:55;6.90;;;6.20;;
37885;SDS011;23726;52.520;13.434;2022-07-23T01:41:20;7.47;;;6.10;;
37885;SDS011;23726;52.520;13.434;2022-07-23T01:43:46;7.78;;;6.38;;
37885;SDS011;23726;52.520;13.434;2022-07-23T01:46:12;7.47;;;6.65;;
37885;SDS011;23726;52.520;13.434;2022-07-23T01:48:40;7.47;;;6.78;;
37885;SDS011;23726;52.520;13.434;2022-07-23T01:51:06;7.97;;;6.45;;
37885;SDS011;23726;52.520;13.434;2022-07-23T01:53:31;7.90;;;6.50;;
37885;SDS011;23726;52.520;13.434;2022-07-23T01:55:57;7.22;;;6.53;;
37885;SDS011;23726;52.520;13.434;2022-07-23T01:58:24;7.10;;;6.40;;
37885;SDS011;23726;52.520;13.434;2022-07-23T02:00:52;7.00;;;6.30;;
37885;SDS011;23726;52.520;13.434;2022-07-23T02:03:18;7.03;;;6.32;;
37885;SDS011;23726;52.520;13.434;2022-07-23T02:05:44;7.18;;;6.35;;
37885;SDS011;23726;52.520;13.434;2022-07-23T02:08:09;7.25;;;6.55;;
37885;SDS011;23726;52.520;13.434;2022-07-23T02:10:35;7.68;;;6.90;;
37885;SDS011;23726;52.520;13.434;2022-07-23T02:13:00;7.20;;;6.50;;
37885;SDS011;23726;52.520;13.434;2022-07-23T02:15:26;7.35;;;6.60;;
37885;SDS011;23726;52.520;13.434;2022-07-23T02:17:53;7.60;;;6.82;;
37885;SDS011;23726;52.520;13.434;2022-07-23T02:20:21;7.40;;;6.65;;
37885;SDS011;23726;52.520;13.434;2022-07-23T02:22:49;6.45;;;5.78;;
37885;SDS011;23726;52.520;13.434;2022-07-23T02:25:15;7.28;;;6.57;;
37885;SDS011;23726;52.520;13.434;2022-07-23T02:27:41;7.30;;;6.55;;
37885;SDS011;23726;52.520;13.434;2022-07-23T02:30:07;6.90;;;6.25;;
37885;SDS011;23726;52.520;13.434;2022-07-23T02:32:33;7.30;;;6.60;;
37885;SDS011;23726;52.520;13.434;2022-07-23T02:34:59;7.72;;;6.93;;
37885;SDS011;23726;52.520;13.434;2022-07-23T02:37:26;7.03;;;6.32;;
37885;SDS011;23726;52.520;13.434;2022-07-23T02:39:52;7.13;;;6.43;;
37885;SDS011;23726;52.520;13.434;2022-07-23T02:42:18;7.80;;;6.63;;
37885;SDS011;23726;52.520;13.434;2022-07-23T02:44:44;6.78;;;6.18;;
37885;SDS011;23726;52.520;13.434;2022-07-23T02:47:09;7.07;;;6.38;;
37885;SDS011;23726;52.520;13.434;2022-07-23T02:49:35;8.00;;;7.18;;
37885;SDS011;23726;52.520;13.434;2022-07-23T02:52:02;8.07;;;6.10;;
37885;SDS011;23726;52.520;13.434;2022-07-23T02:54:28;7.70;;;6.50;;
37885;SDS011;23726;52.520;13.434;2022-07-23T02:56:54;7.00;;;6.40;;
37885;SDS011;23726;52.520;13.434;2022-07-23T02:59:20;7.32;;;6.20;;
37885;SDS011;23726;52.520;13.434;2022-07-23T03:01:45;7.10;;;6.40;;
37885;SDS011;23726;52.520;13.434;2022-07-23T03:04:11;6.93;;;6.22;;
37885;SDS011;23726;52.520;13.434;2022-07-23T03:06:37;6.95;;;6.25;;
37885;SDS011;23726;52.520;13.434;2022-07-23T03:09:05;6.50;;;5.90;;
37885;SDS011;23726;52.520;13.434;2022-07-23T03:11:31;6.93;;;6.22;;
37885;SDS011;23726;52.520;13.434;2022-07-23T03:13:57;6.68;;;6.07;;
37885;SDS011;23726;52.520;13.434;2022-07-23T03:16:22;7.47;;;6.68;;
37885;SDS011;23726;52.520;13.434;2022-07-23T03:18:48;6.55;;;5.95;;
37885;SDS011;23726;52.520;13.434;2022-07-23T03:21:13;7.35;;;6.18;;
37885;SDS011;23726;52.520;13.434;2022-07-23T03:23:40;7.97;;;5.97;;
37885;SDS011;23726;52.520;13.434;2022-07-23T03:26:06;6.60;;;6.00;;
37885;SDS011;23726;52.520;13.434;2022-07-23T03:28:32;7.03;;;5.93;;
37885;SDS011;23726;52.520;13.434;2022-07-23T03:30:58;7.15;;;6.20;;
37885;SDS011;23726;52.520;13.434;2022-07-23T03:33:24;6.70;;;5.82;;
37885;SDS011;23726;52.520;13.434;2022-07-23T03:35:50;6.57;;;5.88;;
37885;SDS011;23726;52.520;13.434;2022-07-23T03:38:16;7.97;;;6.22;;
37885;SDS011;23726;52.520;13.434;2022-07-23T03:40:43;6.88;;;5.93;;
37885;SDS011;23726;52.520;13.434;2022-07-23T03:43:08;7.65;;;6.18;;
37885;SDS011;23726;52.520;13.434;2022-07-23T03:45:35;7.03;;;5.75;;
37885;SDS011;23726;52.520;13.434;2022-07-23T03:48:01;6.90;;;6.20;;
37885;SDS011;23726;52.520;13.434;2022-07-23T03:50:26;6.50;;;5.90;;
37885;SDS011;23726;52.520;13.434;2022-07-23T03:52:52;7.03;;;6.32;;
37885;SDS011;23726;52.520;13.434;2022-07-23T03:55:19;7.22;;;6.03;;
37885;SDS011;23726;52.520;13.434;2022-07-23T03:57:44;6.50;;;5.80;;
37885;SDS011;23726;52.520;13.434;2022-07-23T04:00:10;6.97;;;6.28;;
37885;SDS011;23726;52.520;13.434;2022-07-23T04:02:37;7.40;;;6.00;;
37885;SDS011;23726;52.520;13.434;2022-07-23T04:05:04;6.40;;;5.80;;
37885;SDS011;23726;52.520;13.434;2022-07-23T04:07:30;6.80;;;5.88;;
37885;SDS011;23726;52.520;13.434;2022-07-23T04:09:55;5.90;;;5.40;;
37885;SDS011;23726;52.520;13.434;2022-07-23T04:12:21;6.20;;;5.60;;
37885;SDS011;23726;52.520;13.434;2022-07-23T04:14:47;6.88;;;6.18;;
37885;SDS011;23726;52.520;13.434;2022-07-23T04:17:12;7.03;;;5.47;;
37885;SDS011;23726;52.520;13.434;2022-07-23T04:19:38;6.35;;;5.75;;
37885;SDS011;23726;52.520;13.434;2022-07-23T04:22:08;6.03;;;5.43;;
37885;SDS011;23726;52.520;13.434;2022-07-23T04:24:35;6.40;;;5.80;;
37885;SDS011;23726;52.520;13.434;2022-07-23T04:27:01;6.30;;;5.70;;
37885;SDS011;23726;52.520;13.434;2022-07-23T04:29:27;6.20;;;5.60;;
37885;SDS011;23726;52.520;13.434;2022-07-23T04:31:54;6.82;;;5.70;;
37885;SDS011;23726;52.520;13.434;2022-07-23T04:34:19;7.28;;;6.53;;
37885;SDS011;23726;52.520;13.434;2022-07-23T04:36:45;6.15;;;5.55;;
37885;SDS011;23726;52.520;13.434;2022-07-23T04:39:11;5.85;;;5.25;;
37885;SDS011;23726;52.520;13.434;2022-07-23T04:41:37;6.70;;;5.63;;
37885;SDS011;23726;52.520;13.434;2022-07-23T04:44:02;5.32;;;4.82;;
37885;SDS011;23726;52.520;13.434;2022-07-23T04:46:28;6.25;;;5.20;;
37885;SDS011;23726;52.520;13.434;2022-07-23T04:48:55;5.80;;;5.20;;
37885;SDS011;23726;52.520;13.434;2022-07-23T04:51:20;6.00;;;5.40;;
37885;SDS011;23726;52.520;13.434;2022-07-23T04:53:47;6.05;;;4.75;;
37885;SDS011;23726;52.520;13.434;2022-07-23T04:56:13;6.07;;;5.03;;
37885;SDS011;23726;52.520;13.434;2022-07-23T04:58:38;6.07;;;5.45;;
37885;SDS011;23726;52.520;13.434;2022-07-23T05:01:05;7.40;;;5.47;;
37885;SDS011;23726;52.520;13.434;2022-07-23T05:03:30;6.72;;;5.10;;
37885;SDS011;23726;52.520;13.434;2022-07-23T05:05:56;5.68;;;4.85;;
37885;SDS011;23726;52.520;13.434;2022-07-23T05:08:22;7.20;;;5.70;;
37885;SDS011;23726;52.520;13.434;2022-07-23T05:10:47;5.75;;;5.15;;
37885;SDS011;23726;52.520;13.434;2022-07-23T05:13:16;6.70;;;5.43;;
37885;SDS011;23726;52.520;13.434;2022-07-23T05:15:42;5.75;;;4.88;;
37885;SDS011;23726;52.520;13.434;2022-07-23T05:18:10;5.88;;;5.05;;
37885;SDS011;23726;52.520;13.434;2022-07-23T05:20:36;6.18;;;5.40;;
37885;SDS011;23726;52.520;13.434;2022-07-23T05:23:02;5.45;;;4.90;;
37885;SDS011;23726;52.520;13.434;2022-07-23T05:25:27;5.85;;;5.00;;
37885;SDS011;23726;52.520;13.434;2022-07-23T05:27:53;5.43;;;4.90;;
37885;SDS011;23726;52.520;13.434;2022-07-23T05:30:19;4.95;;;4.45;;
37885;SDS011;23726;52.520;13.434;2022-07-23T05:32:45;5.30;;;4.80;;
37885;SDS011;23726;52.520;13.434;2022-07-23T05:35:12;5.10;;;4.60;;
37885;SDS011;23726;52.520;13.434;2022-07-23T05:37:38;7.25;;;4.43;;
37885;SDS011;23726;52.520;13.434;2022-07-23T05:40:05;4.55;;;4.15;;
37885;SDS011;23726;52.520;13.434;2022-07-23T05:42:37;5.10;;;4.57;;
37885;SDS011;23726;52.520;13.434;2022-07-23T05:45:05;5.32;;;4.80;;
37885;SDS011;23726;52.520;13.434;2022-07-23T05:47:44;5.40;;;4.53;;
37885;SDS011;23726;52.520;13.434;2022-07-23T05:50:12;5.95;;;4.28;;
37885;SDS011;23726;52.520;13.434;2022-07-23T05:52:38;6.72;;;4.70;;
37885;SDS011;23726;52.520;13.434;2022-07-23T05:55:05;4.97;;;4.47;;
37885;SDS011;23726;52.520;13.434;2022-07-23T05:57:33;5.60;;;4.32;;
37885;SDS011;23726;52.520;13.434;2022-07-23T05:59:58;6.53;;;4.40;;
37885;SDS011;23726;52.520;13.434;2022-07-23T06:02:24;6.53;;;4.50;;
37885;SDS011;23726;52.520;13.434;2022-07-23T06:04:50;4.50;;;3.88;;
37885;SDS011;23726;52.520;13.434;2022-07-23T06:07:15;4.90;;;4.32;;
37885;SDS011;23726;52.520;13.434;2022-07-23T06:09:42;5.18;;;4.45;;
37885;SDS011;23726;52.520;13.434;2022-07-23T06:12:08;5.68;;;4.38;;
37885;SDS011;23726;52.520;13.434;2022-07-23T06:14:34;5.65;;;4.65;;
37885;SDS011;23726;52.520;13.434;2022-07-23T06:16:59;5.38;;;4.40;;
37885;SDS011;23726;52.520;13.434;2022-07-23T06:19:26;4.93;;;4.03;;
37885;SDS011;23726;52.520;13.434;2022-07-23T06:21:51;4.90;;;4.50;;
37885;SDS011;23726;52.520;13.434;2022-07-23T06:24:19;4.80;;;4.30;;
37885;SDS011;23726;52.520;13.434;2022-07-23T06:26:46;4.53;;;4.10;;
37885;SDS011;23726;52.520;13.434;2022-07-23T06:29:12;4.50;;;4.05;;
37885;SDS011;23726;52.520;13.434;2022-07-23T06:31:37;4.85;;;4.30;;
37885;SDS011;23726;52.520;13.434;2022-07-23T06:34:03;5.80;;;3.92;;
37885;SDS011;23726;52.520;13.434;2022-07-23T06:36:29;4.30;;;3.90;;
37885;SDS011;23726;52.520;13.434;2022-07-23T06:38:56;4.53;;;3.70;;
37885;SDS011;23726;52.520;13.434;2022-07-23T06:41:21;4.82;;;4.35;;
37885;SDS011;23726;52.520;13.434;2022-07-23T06:43:47;4.75;;;4.10;;
37885;SDS011;23726;52.520;13.434;2022-07-23T06:46:14;4.88;;;4.00;;
37885;SDS011;23726;52.520;13.434;2022-07-23T06:48:41;4.65;;;3.80;;
37885;SDS011;23726;52.520;13.434;2022-07-23T06:51:07;7.05;;;4.32;;
37885;SDS011;23726;52.520;13.434;2022-07-23T06:53:33;4.45;;;4.03;;
37885;SDS011;23726;52.520;13.434;2022-07-23T06:55:58;4.20;;;3.80;;
37885;SDS011;23726;52.520;13.434;2022-07-23T06:58:24;4.82;;;3.88;;
37885;SDS011;23726;52.520;13.434;2022-07-23T07:00:50;4.32;;;3.92;;
37885;SDS011;23726;52.520;13.434;2022-07-23T07:03:17;3.85;;;3.55;;
37885;SDS011;23726;52.520;13.434;2022-07-23T07:05:44;4.07;;;3.78;;
37885;SDS011;23726;52.520;13.434;2022-07-23T07:08:11;3.72;;;3.42;;
37885;SDS011;23726;52.520;13.434;2022-07-23T07:10:36;4.20;;;3.80;;
37885;SDS011;23726;52.520;13.434;2022-07-23T07:13:02;4.45;;;4.05;;
37885;SDS011;23726;52.520;13.434;2022-07-23T07:15:27;4.60;;;4.00;;
37885;SDS011;23726;52.520;13.434;2022-07-23T07:17:56;3.88;;;3.58;;
37885;SDS011;23726;52.520;13.434;2022-07-23T07:20:22;5.07;;;4.00;;
37885;SDS011;23726;52.520;13.434;2022-07-23T07:22:48;5.22;;;3.70;;
37885;SDS011;23726;52.520;13.434;2022-07-23T07:25:14;3.92;;;3.53;;
37885;SDS011;23726;52.520;13.434;2022-07-23T07:27:40;4.10;;;3.80;;
37885;SDS011;23726;52.520;13.434;2022-07-23T07:30:07;6.07;;;4.10;;
37885;SDS011;23726;52.520;13.434;2022-07-23T07:32:33;5.00;;;3.78;;
37885;SDS011;23726;52.520;13.434;2022-07-23T07:34:59;3.97;;;3.67;;
37885;SDS011;23726;52.520;13.434;2022-07-23T07:37:24;4.43;;;4.03;;
37885;SDS011;23726;52.520;13.434;2022-07-23T07:39:50;4.30;;;3.88;;
37885;SDS011;23726;52.520;13.434;2022-07-23T07:42:15;5.47;;;3.95;;
37885;SDS011;23726;52.520;13.434;2022-07-23T07:44:42;4.35;;;3.95;;
37885;SDS011;23726;52.520;13.434;2022-07-23T07:47:08;4.70;;;3.53;;
37885;SDS011;23726;52.520;13.434;2022-07-23T07:49:33;4.30;;;3.90;;
37885;SDS011;23726;52.520;13.434;2022-07-23T07:52:01;4.20;;;3.60;;
37885;SDS011;23726;52.520;13.434;2022-07-23T07:54:26;4.18;;;3.70;;
37885;SDS011;23726;52.520;13.434;2022-07-23T07:56:52;4.57;;;3.65;;
37885;SDS011;23726;52.520;13.434;2022-07-23T07:59:19;4.53;;;3.92;;
37885;SDS011;23726;52.520;13.434;2022-07-23T08:01:44;4.28;;;3.88;;
37885;SDS011;23726;52.520;13.434;2022-07-23T08:04:11;4.10;;;3.70;;
37885;SDS011;23726;52.520;13.434;2022-07-23T08:06:36;4.00;;;3.60;;
37885;SDS011;23726;52.520;13.434;2022-07-23T08:09:03;5.10;;;3.40;;
37885;SDS011;23726;52.520;13.434;2022-07-23T08:11:28;5.43;;;3.70;;
37885;SDS011;23726;52.520;13.434;2022-07-23T08:13:54;5.40;;;3.63;;
37885;SDS011;23726;52.520;13.434;2022-07-23T08:16:19;4.82;;;3.78;;
37885;SDS011;23726;52.520;13.434;2022-07-23T08:18:45;4.35;;;3.80;;
37885;SDS011;23726;52.520;13.434;2022-07-23T08:21:11;3.92;;;3.60;;
37885;SDS011;23726;52.520;13.434;2022-07-23T08:23:37;4.50;;;3.75;;
37885;SDS011;23726;52.520;13.434;2022-07-23T08:26:04;4.30;;;3.88;;
37885;SDS011;23726;52.520;13.434;2022-07-23T08:28:31;4.43;;;3.50;;
37885;SDS011;23726;52.520;13.434;2022-07-23T08:31:00;3.88;;;3.58;;
37885;SDS011;23726;52.520;13.434;2022-07-23T08:33:26;3.80;;;3.50;;
37885;SDS011;23726;52.520;13.434;2022-07-23T08:35:51;4.15;;;3.60;;
37885;SDS011;23726;52.520;13.434;2022-07-23T08:38:21;4.18;;;3.78;;
37885;SDS011;23726;52.520;13.434;2022-07-23T08:40:48;4.93;;;4.05;;
37885;SDS011;23726;52.520;13.434;2022-07-23T08:43:21;3.55;;;3.25;;
37885;SDS011;23726;52.520;13.434;2022-07-23T08:45:49;3.72;;;3.42;;
37885;SDS011;23726;52.520;13.434;2022-07-23T08:48:18;3.58;;;3.28;;
37885;SDS011;23726;52.520;13.434;2022-07-23T08:50:46;4.30;;;3.90;;
37885;SDS011;23726;52.520;13.434;2022-07-23T08:53:17;3.83;;;3.53;;
37885;SDS011;23726;52.520;13.434;2022-07-23T08:55:44;4.72;;;3.58;;
37885;SDS011;23726;52.520;13.434;2022-07-23T08:58:15;4.78;;;3.33;;
37885;SDS011;23726;52.520;13.434;2022-07-23T09:00:42;4.38;;;3.45;;
37885;SDS011;23726;52.520;13.434;2022-07-23T09:03:16;3.60;;;3.22;;
37885;SDS011;23726;52.520;13.434;2022-07-23T09:05:47;4.45;;;3.90;;
37885;SDS011;23726;52.520;13.434;2022-07-23T09:08:18;4.00;;;3.58;;
37885;SDS011;23726;52.520;13.434;2022-07-23T09:10:57;3.80;;;3.40;;
37885;SDS011;23726;52.520;13.434;2022-07-23T09:13:34;4.05;;;3.53;;
37885;SDS011;23726;52.520;13.434;2022-07-23T09:16:11;4.10;;;3.67;;
37885;SDS011;23726;52.520;13.434;2022-07-23T09:18:51;4.35;;;3.58;;
37885;SDS011;23726;52.520;13.434;2022-07-23T09:23:53;3.53;;;3.23;;
37885;SDS011;23726;52.520;13.434;2022-07-23T09:26:29;4.20;;;3.80;;
37885;SDS011;23726;52.520;13.434;2022-07-23T09:31:42;3.30;;;3.00;;
37885;SDS011;23726;52.520;13.434;2022-07-23T09:34:27;4.63;;;3.63;;
37885;SDS011;23726;52.520;13.434;2022-07-23T09:37:14;3.47;;;3.17;;
37885;SDS011;23726;52.520;13.434;2022-07-23T09:39:42;3.75;;;3.40;;
37885;SDS011;23726;52.520;13.434;2022-07-23T09:42:13;5.30;;;3.80;;
37885;SDS011;23726;52.520;13.434;2022-07-23T09:44:43;3.97;;;3.55;;
37885;SDS011;23726;52.520;13.434;2022-07-23T09:47:10;4.15;;;3.40;;
37885;SDS011;23726;52.520;13.434;2022-07-23T09:49:37;4.15;;;3.15;;
37885;SDS011;23726;52.520;13.434;2022-07-23T09:52:05;4.32;;;3.47;;
37885;SDS011;23726;52.520;13.434;2022-07-23T09:54:38;4.35;;;3.88;;
37885;SDS011;23726;52.520;13.434;2022-07-23T09:57:07;3.80;;;3.40;;
37885;SDS011;23726;52.520;13.434;2022-07-23T09:59:43;3.80;;;3.40;;
37885;SDS011;23726;52.520;13.434;2022-07-23T10:02:12;4.13;;;3.70;;
37885;SDS011;23726;52.520;13.434;2022-07-23T10:04:39;3.70;;;3.40;;
37885;SDS011;23726;52.520;13.434;2022-07-23T10:07:07;4.40;;;4.00;;
37885;SDS011;23726;52.520;13.434;2022-07-23T10:09:36;3.95;;;3.55;;
37885;SDS011;23726;52.520;13.434;2022-07-23T10:12:04;5.50;;;3.83;;
37885;SDS011;23726;52.520;13.434;2022-07-23T10:14:34;5.53;;;3.47;;
37885;SDS011;23726;52.520;13.434;2022-07-23T10:17:01;3.88;;;3.42;;
37885;SDS011;23726;52.520;13.434;2022-07-23T10:19:28;6.13;;;3.85;;
37885;SDS011;23726;52.520;13.434;2022-07-23T10:21:56;4.10;;;3.67;;
37885;SDS011;23726;52.520;13.434;2022-07-23T10:29:58;5.20;;;3.95;;
37885;SDS011;23726;52.520;13.434;2022-07-23T10:35:37;4.00;;;3.60;;
37885;SDS011;23726;52.520;13.434;2022-07-23T10:38:30;5.32;;;3.70;;
37885;SDS011;23726;52.520;13.434;2022-07-23T10:41:00;5.90;;;3.65;;
37885;SDS011;23726;52.520;13.434;2022-07-23T10:43:28;5.75;;;4.05;;
37885;SDS011;23726;52.520;13.434;2022-07-23T10:45:55;8.40;;;4.18;;
37885;SDS011;23726;52.520;13.434;2022-07-23T10:48:41;5.45;;;3.50;;
37885;SDS011;23726;52.520;13.434;2022-07-23T10:51:13;5.03;;;3.63;;
37885;SDS011;23726;52.520;13.434;2022-07-23T10:53:54;5.90;;;4.05;;
37885;SDS011;23726;52.520;13.434;2022-07-23T10:59:31;6.68;;;3.45;;
37885;SDS011;23726;52.520;13.434;2022-07-23T11:02:20;4.38;;;3.47;;
37885;SDS011;23726;52.520;13.434;2022-07-23T11:04:52;6.10;;;3.50;;
37885;SDS011;23726;52.520;13.434;2022-07-23T11:07:18;3.65;;;3.35;;
37885;SDS011;23726;52.520;13.434;2022-07-23T11:09:44;4.00;;;3.50;;
37885;SDS011;23726;52.520;13.434;2022-07-23T11:17:33;5.47;;;3.65;;
37885;SDS011;23726;52.520;13.434;2022-07-23T11:25:09;5.30;;;3.53;;
37885;SDS011;23726;52.520;13.434;2022-07-23T11:27:53;6.93;;;3.63;;
37885;SDS011;23726;52.520;13.434;2022-07-23T11:35:36;7.15;;;3.50;;
37885;SDS011;23726;52.520;13.434;2022-07-23T12:48:15;5.15;;;4.57;;
37885;SDS011;23726;52.520;13.434;2022-07-23T12:50:50;4.95;;;4.47;;
37885;SDS011;23726;52.520;13.434;2022-07-23T12:53:18;4.80;;;4.40;;
37885;SDS011;23726;52.520;13.434;2022-07-23T12:55:48;4.63;;;4.20;;
37885;SDS011;23726;52.520;13.434;2022-07-23T12:58:16;8.52;;;4.88;;
37885;SDS011;23726;52.520;13.434;2022-07-23T13:03:27;7.32;;;4.35;;
37885;SDS011;23726;52.520;13.434;2022-07-23T13:05:59;4.50;;;4.10;;
37885;SDS011;23726;52.520;13.434;2022-07-23T13:08:27;5.35;;;4.78;;
37885;SDS011;23726;52.520;13.434;2022-07-23T13:10:54;5.47;;;4.97;;
37885;SDS011;23726;52.520;13.434;2022-07-23T13:13:24;5.00;;;4.60;;
37885;SDS011;23726;52.520;13.434;2022-07-23T13:15:51;5.90;;;4.45;;
37885;SDS011;23726;52.520;13.434;2022-07-23T13:18:17;5.65;;;4.60;;
37885;SDS011;23726;52.520;13.434;2022-07-23T13:20:44;7.13;;;4.50;;
37885;SDS011;23726;52.520;13.434;2022-07-23T13:23:11;4.95;;;4.30;;
37885;SDS011;23726;52.520;13.434;2022-07-23T13:25:36;6.40;;;4.55;;
37885;SDS011;23726;52.520;13.434;2022-07-23T13:28:02;7.15;;;5.05;;
37885;SDS011;23726;52.520;13.434;2022-07-23T13:30:28;5.78;;;5.00;;
37885;SDS011;23726;52.520;13.434;2022-07-23T13:32:54;5.43;;;4.93;;
37885;SDS011;23726;52.520;13.434;2022-07-23T13:35:19;6.80;;;4.93;;
37885;SDS011;23726;52.520;13.434;2022-07-23T13:37:45;5.43;;;4.93;;
37885;SDS011;23726;52.520;13.434;2022-07-23T13:40:10;5.35;;;4.85;;
37885;SDS011;23726;52.520;13.434;2022-07-23T13:42:37;7.78;;;5.10;;
37885;SDS011;23726;52.520;13.434;2022-07-23T13:45:03;5.95;;;4.97;;
37885;SDS011;23726;52.520;13.434;2022-07-23T13:47:30;7.22;;;5.20;;
37885;SDS011;23726;52.520;13.434;2022-07-23T13:49:55;5.05;;;4.50;;
37885;SDS011;23726;52.520;13.434;2022-07-23T13:52:22;5.32;;;4.82;;
37885;SDS011;23726;52.520;13.434;2022-07-23T13:54:48;5.30;;;4.72;;
37885;SDS011;23726;52.520;13.434;2022-07-23T13:57:14;6.68;;;5.00;;
37885;SDS011;23726;52.520;13.434;2022-07-23T13:59:40;6.60;;;4.80;;
37885;SDS011;23726;52.520;13.434;2022-07-23T14:02:06;5.18;;;4.68;;
37885;SDS011;23726;52.520;13.434;2022-07-23T14:04:32;5.22;;;4.72;;
37885;SDS011;23726;52.520;13.434;2022-07-23T14:06:58;5.55;;;5.00;;
37885;SDS011;23726;52.520;13.434;2022-07-23T14:09:23;5.78;;;4.82;;
37885;SDS011;23726;52.520;13.434;2022-07-23T14:11:49;5.07;;;4.68;;
37885;SDS011;23726;52.520;13.434;2022-07-23T14:14:15;5.38;;;4.93;;
37885;SDS011;23726;52.520;13.434;2022-07-23T14:16:42;5.57;;;5.07;;
37885;SDS011;23726;52.520;13.434;2022-07-23T14:19:07;6.22;;;5.20;;
37885;SDS011;23726;52.520;13.434;2022-07-23T14:21:34;5.28;;;4.78;;
37885;SDS011;23726;52.520;13.434;2022-07-23T14:23:59;6.28;;;5.05;;
37885;SDS011;23726;52.520;13.434;2022-07-23T14:26:25;5.82;;;5.22;;
37885;SDS011;23726;52.520;13.434;2022-07-23T14:28:51;4.95;;;4.55;;
37885;SDS011;23726;52.520;13.434;2022-07-23T14:31:16;6.75;;;5.00;;
37885;SDS011;23726;52.520;13.434;2022-07-23T14:33:42;5.20;;;4.70;;
37885;SDS011;23726;52.520;13.434;2022-07-23T14:36:08;5.63;;;5.13;;
37885;SDS011;23726;52.520;13.434;2022-07-23T14:38:34;5.72;;;5.20;;
37885;SDS011;23726;52.520;13.434;2022-07-23T14:40:59;5.50;;;5.00;;
37885;SDS011;23726;52.520;13.434;2022-07-23T14:43:25;5.00;;;4.60;;
37885;SDS011;23726;52.520;13.434;2022-07-23T14:45:50;5.65;;;5.15;;
37885;SDS011;23726;52.520;13.434;2022-07-23T14:48:16;5.60;;;5.03;;
37885;SDS011;23726;52.520;13.434;2022-07-23T14:50:42;5.32;;;4.82;;
37885;SDS011;23726;52.520;13.434;2022-07-23T14:53:07;5.35;;;4.85;;
37885;SDS011;23726;52.520;13.434;2022-07-23T14:55:34;5.32;;;4.50;;
37885;SDS011;23726;52.520;13.434;2022-07-23T14:58:01;6.25;;;5.38;;
37885;SDS011;23726;52.520;13.434;2022-07-23T15:00:27;6.50;;;5.13;;
37885;SDS011;23726;52.520;13.434;2022-07-23T15:02:52;5.20;;;4.70;;
37885;SDS011;23726;52.520;13.434;2022-07-23T15:05:18;5.15;;;4.72;;
37885;SDS011;23726;52.520;13.434;2022-07-23T15:07:44;5.63;;;5.00;;
37885;SDS011;23726;52.520;13.434;2022-07-23T15:10:10;5.28;;;4.78;;
37885;SDS011;23726;52.520;13.434;2022-07-23T15:12:36;5.75;;;5.25;;
37885;SDS011;23726;52.520;13.434;2022-07-23T15:15:01;5.45;;;5.00;;
37885;SDS011;23726;52.520;13.434;2022-07-23T15:17:28;7.47;;;5.43;;
37885;SDS011;23726;52.520;13.434;2022-07-23T15:19:53;5.78;;;4.60;;
37885;SDS011;23726;52.520;13.434;2022-07-23T15:22:20;6.75;;;4.90;;
37885;SDS011;23726;52.520;13.434;2022-07-23T15:24:46;5.35;;;4.85;;
37885;SDS011;23726;52.520;13.434;2022-07-23T15:27:12;5.13;;;4.63;;
37885;SDS011;23726;52.520;13.434;2022-07-23T15:29:38;4.75;;;4.35;;
37885;SDS011;23726;52.520;13.434;2022-07-23T15:32:04;5.03;;;4.63;;
37885;SDS011;23726;52.520;13.434;2022-07-23T15:34:30;5.25;;;4.75;;
37885;SDS011;23726;52.520;13.434;2022-07-23T15:36:56;4.90;;;4.40;;
37885;SDS011;23726;52.520;13.434;2022-07-23T15:39:25;5.23;;;4.73;;
37885;SDS011;23726;52.520;13.434;2022-07-23T15:41:51;5.25;;;4.75;;
37885;SDS011;23726;52.520;13.434;2022-07-23T15:44:18;4.80;;;4.40;;
37885;SDS011;23726;52.520;13.434;2022-07-23T15:46:43;4.57;;;4.18;;
37885;SDS011;23726;52.520;13.434;2022-07-23T15:49:09;5.50;;;5.00;;
37885;SDS011;23726;52.520;13.434;2022-07-23T15:51:34;5.53;;;5.03;;
37885;SDS011;23726;52.520;13.434;2022-07-23T15:54:00;5.95;;;4.68;;
37885;SDS011;23726;52.520;13.434;2022-07-23T15:56:26;6.80;;;4.32;;
37885;SDS011;23726;52.520;13.434;2022-07-23T15:58:52;5.15;;;4.75;;
37885;SDS011;23726;52.520;13.434;2022-07-23T16:01:18;5.35;;;4.85;;
37885;SDS011;23726;52.520;13.434;2022-07-23T16:03:43;4.70;;;4.30;;
37885;SDS011;23726;52.520;13.434;2022-07-23T16:06:09;4.97;;;4.57;;
37885;SDS011;23726;52.520;13.434;2022-07-23T16:08:36;5.20;;;4.30;;
37885;SDS011;23726;52.520;13.434;2022-07-23T16:11:02;4.82;;;4.43;;
37885;SDS011;23726;52.520;13.434;2022-07-23T16:13:27;4.78;;;4.30;;
37885;SDS011;23726;52.520;13.434;2022-07-23T16:15:55;5.88;;;4.70;;
37885;SDS011;23726;52.520;13.434;2022-07-23T16:18:21;5.18;;;4.75;;